sensor_id;sensor_type;location;lat;lon;timestamp;temperature;humidity
60242;SHT30;46103;52.076;113.488;2023-04-03T00:00:29;-8.14;50.32
60242;SHT30;46103;52.076;113.488;2023-04-03T00:03:40;-8.15;50.07
60242;SHT30;46103;52.076;113.488;2023-04-03T00:06:50;-8.25;50.27
60242;SHT30;46103;52.076;113.488;2023-04-03T00:10:01;-8.09;50.29
60242;SHT30;46103;52.076;113.488;2023-04-03T00:13:11;-7.77;50.02
60242;SHT30;46103;52.076;113.488;2023-04-03T00:16:21;-7.71;49.29
60242;SHT30;46103;52.076;113.488;2023-04-03T00:19:31;-7.52;48.72
60242;SHT30;46103;52.076;113.488;2023-04-03T00:22:44;-7.49;49.11
60242;SHT30;46103;52.076;113.488;2023-04-03T00:25:58;-7.28;48.30
60242;SHT30;46103;52.076;113.488;2023-04-03T00:29:08;-7.28;47.82
60242;SHT30;46103;52.076;113.488;2023-04-03T00:32:30;-7.26;47.03
60242;SHT30;46103;52.076;113.488;2023-04-03T00:35:41;-7.29;47.45
60242;SHT30;46103;52.076;113.488;2023-04-03T00:38:54;-7.22;47.86
60242;SHT30;46103;52.076;113.488;2023-04-03T00:42:09;-7.14;47.76
60242;SHT30;46103;52.076;113.488;2023-04-03T00:45:25;-6.93;47.55
60242;SHT30;46103;52.076;113.488;2023-04-03T00:48:45;-6.90;46.64
60242;SHT30;46103;52.076;113.488;2023-04-03T00:52:19;-6.77;46.99
60242;SHT30;46103;52.076;113.488;2023-04-03T00:55:41;-6.66;46.94
60242;SHT30;46103;52.076;113.488;2023-04-03T00:59:27;-6.64;46.89
60242;SHT30;46103;52.076;113.488;2023-04-03T01:02:47;-6.53;45.99
60242;SHT30;46103;52.076;113.488;2023-04-03T01:06:07;-6.54;45.83
60242;SHT30;46103;52.076;113.488;2023-04-03T01:09:27;-6.47;45.34
60242;SHT30;46103;52.076;113.488;2023-04-03T01:12:36;-6.29;44.79
60242;SHT30;46103;52.076;113.488;2023-04-03T01:15:53;-6.19;45.45
60242;SHT30;46103;52.076;113.488;2023-04-03T01:19:00;-6.11;43.93
60242;SHT30;46103;52.076;113.488;2023-04-03T01:25:55;-5.71;44.14
60242;SHT30;46103;52.076;113.488;2023-04-03T01:29:00;-5.81;42.58
60242;SHT30;46103;52.076;113.488;2023-04-03T01:32:18;-5.80;43.27
60242;SHT30;46103;52.076;113.488;2023-04-03T01:35:29;-5.50;42.90
60242;SHT30;46103;52.076;113.488;2023-04-03T01:38:33;-5.33;42.99
60242;SHT30;46103;52.076;113.488;2023-04-03T01:41:37;-5.15;42.73
60242;SHT30;46103;52.076;113.488;2023-04-03T01:44:57;-5.23;41.52
60242;SHT30;46103;52.076;113.488;2023-04-03T01:48:01;-5.29;42.02
60242;SHT30;46103;52.076;113.488;2023-04-03T01:51:06;-5.15;42.04
60242;SHT30;46103;52.076;113.488;2023-04-03T01:54:10;-5.11;41.65
60242;SHT30;46103;52.076;113.488;2023-04-03T01:57:28;-5.36;40.73
60242;SHT30;46103;52.076;113.488;2023-04-03T02:00:32;-5.21;41.53
60242;SHT30;46103;52.076;113.488;2023-04-03T02:03:37;-5.16;41.83
60242;SHT30;46103;52.076;113.488;2023-04-03T02:06:41;-5.08;41.32
60242;SHT30;46103;52.076;113.488;2023-04-03T02:09:46;-5.04;38.90
60242;SHT30;46103;52.076;113.488;2023-04-03T02:13:04;-4.80;41.23
60242;SHT30;46103;52.076;113.488;2023-04-03T02:16:11;-4.97;39.55
60242;SHT30;46103;52.076;113.488;2023-04-03T02:19:16;-4.81;40.80
60242;SHT30;46103;52.076;113.488;2023-04-03T02:22:22;-4.98;39.45
60242;SHT30;46103;52.076;113.488;2023-04-03T02:25:27;-5.00;40.06
60242;SHT30;46103;52.076;113.488;2023-04-03T02:28:32;-4.93;40.37
60242;SHT30;46103;52.076;113.488;2023-04-03T02:31:36;-4.95;38.98
60242;SHT30;46103;52.076;113.488;2023-04-03T02:34:40;-5.07;37.89
60242;SHT30;46103;52.076;113.488;2023-04-03T02:37:46;-4.88;39.52
60242;SHT30;46103;52.076;113.488;2023-04-03T02:40:50;-4.88;39.11
60242;SHT30;46103;52.076;113.488;2023-04-03T02:43:54;-4.95;38.88
60242;SHT30;46103;52.076;113.488;2023-04-03T02:46:58;-4.80;39.02
60242;SHT30;46103;52.076;113.488;2023-04-03T02:50:15;-4.56;39.06
60242;SHT30;46103;52.076;113.488;2023-04-03T02:53:20;-4.56;38.33
60242;SHT30;46103;52.076;113.488;2023-04-03T02:56:54;-4.29;38.58
60242;SHT30;46103;52.076;113.488;2023-04-03T02:59:58;-4.12;38.30
60242;SHT30;46103;52.076;113.488;2023-04-03T03:03:02;-4.30;36.98
60242;SHT30;46103;52.076;113.488;2023-04-03T03:06:11;-4.45;37.88
60242;SHT30;46103;52.076;113.488;2023-04-03T03:09:33;-4.44;37.45
60242;SHT30;46103;52.076;113.488;2023-04-03T03:12:37;-4.17;38.37
60242;SHT30;46103;52.076;113.488;2023-04-03T03:15:42;-4.15;37.29
60242;SHT30;46103;52.076;113.488;2023-04-03T03:18:45;-4.12;36.68
60242;SHT30;46103;52.076;113.488;2023-04-03T03:21:49;-4.24;36.44
60242;SHT30;46103;52.076;113.488;2023-04-03T03:24:54;-4.12;37.67
60242;SHT30;46103;52.076;113.488;2023-04-03T03:27:58;-3.74;36.58
60242;SHT30;46103;52.076;113.488;2023-04-03T03:31:05;-3.46;35.41
60242;SHT30;46103;52.076;113.488;2023-04-03T03:34:11;-3.25;34.07
60242;SHT30;46103;52.076;113.488;2023-04-03T03:37:17;-3.27;35.01
60242;SHT30;46103;52.076;113.488;2023-04-03T03:40:21;-3.31;34.25
60242;SHT30;46103;52.076;113.488;2023-04-03T03:43:25;-3.09;34.32
60242;SHT30;46103;52.076;113.488;2023-04-03T03:46:28;-2.97;34.98
60242;SHT30;46103;52.076;113.488;2023-04-03T03:49:32;-3.00;33.73
60242;SHT30;46103;52.076;113.488;2023-04-03T03:52:35;-3.00;32.51
60242;SHT30;46103;52.076;113.488;2023-04-03T03:55:39;-3.01;33.62
60242;SHT30;46103;52.076;113.488;2023-04-03T03:58:44;-2.79;33.08
60242;SHT30;46103;52.076;113.488;2023-04-03T04:01:47;-2.39;34.32
60242;SHT30;46103;52.076;113.488;2023-04-03T04:04:54;-2.56;32.02
60242;SHT30;46103;52.076;113.488;2023-04-03T04:07:58;-2.45;32.91
60242;SHT30;46103;52.076;113.488;2023-04-03T04:11:02;-2.25;31.46
60242;SHT30;46103;52.076;113.488;2023-04-03T04:14:06;-2.25;31.40
60242;SHT30;46103;52.076;113.488;2023-04-03T04:17:09;-2.08;31.80
60242;SHT30;46103;52.076;113.488;2023-04-03T04:20:16;-2.28;31.44
60242;SHT30;46103;52.076;113.488;2023-04-03T04:23:22;-2.25;29.94
60242;SHT30;46103;52.076;113.488;2023-04-03T04:26:25;-2.12;31.83
60242;SHT30;46103;52.076;113.488;2023-04-03T04:29:30;-2.41;30.93
60242;SHT30;46103;52.076;113.488;2023-04-03T04:32:40;-2.34;30.51
60242;SHT30;46103;52.076;113.488;2023-04-03T04:35:44;-2.36;30.89
60242;SHT30;46103;52.076;113.488;2023-04-03T04:38:50;-2.56;30.58
60242;SHT30;46103;52.076;113.488;2023-04-03T04:42:00;-2.57;30.82
60242;SHT30;46103;52.076;113.488;2023-04-03T04:45:06;-2.48;29.97
60242;SHT30;46103;52.076;113.488;2023-04-03T04:48:24;-3.01;30.52
60242;SHT30;46103;52.076;113.488;2023-04-03T04:51:29;-2.79;31.31
60242;SHT30;46103;52.076;113.488;2023-04-03T04:55:09;-2.50;31.73
60242;SHT30;46103;52.076;113.488;2023-04-03T04:58:35;-2.32;29.96
60242;SHT30;46103;52.076;113.488;2023-04-03T05:02:59;-2.00;31.64
60242;SHT30;46103;52.076;113.488;2023-04-03T05:06:52;-1.74;29.07
60242;SHT30;46103;52.076;113.488;2023-04-03T05:10:24;-1.93;30.13
60242;SHT30;46103;52.076;113.488;2023-04-03T05:13:41;-2.02;30.52
60242;SHT30;46103;52.076;113.488;2023-04-03T05:16:46;-2.24;29.54
60242;SHT30;46103;52.076;113.488;2023-04-03T05:20:11;-1.91;31.28
60242;SHT30;46103;52.076;113.488;2023-04-03T05:23:16;-1.98;29.85
60242;SHT30;46103;52.076;113.488;2023-04-03T05:26:36;-1.98;30.90
60242;SHT30;46103;52.076;113.488;2023-04-03T05:30:01;-1.60;29.67
60242;SHT30;46103;52.076;113.488;2023-04-03T05:33:09;-1.49;29.91
60242;SHT30;46103;52.076;113.488;2023-04-03T05:36:23;-1.55;29.17
60242;SHT30;46103;52.076;113.488;2023-04-03T05:39:44;-1.52;29.49
60242;SHT30;46103;52.076;113.488;2023-04-03T05:43:05;-1.84;29.60
60242;SHT30;46103;52.076;113.488;2023-04-03T05:46:27;-1.95;30.41
60242;SHT30;46103;52.076;113.488;2023-04-03T05:49:34;-2.12;30.91
60242;SHT30;46103;52.076;113.488;2023-04-03T05:52:40;-1.95;31.39
60242;SHT30;46103;52.076;113.488;2023-04-03T05:56:01;-1.95;30.22
60242;SHT30;46103;52.076;113.488;2023-04-03T05:59:10;-1.70;30.36
60242;SHT30;46103;52.076;113.488;2023-04-03T06:02:19;-1.86;30.59
60242;SHT30;46103;52.076;113.488;2023-04-03T06:05:26;-1.66;29.26
60242;SHT30;46103;52.076;113.488;2023-04-03T06:08:32;-1.90;28.68
60242;SHT30;46103;52.076;113.488;2023-04-03T06:11:36;-1.59;29.76
60242;SHT30;46103;52.076;113.488;2023-04-03T06:14:40;-1.46;29.78
60242;SHT30;46103;52.076;113.488;2023-04-03T06:17:43;-1.16;30.02
60242;SHT30;46103;52.076;113.488;2023-04-03T06:20:47;-1.41;28.60
60242;SHT30;46103;52.076;113.488;2023-04-03T06:23:50;-1.67;29.70
60242;SHT30;46103;52.076;113.488;2023-04-03T06:26:54;-1.73;28.99
60242;SHT30;46103;52.076;113.488;2023-04-03T06:29:57;-1.74;29.57
60242;SHT30;46103;52.076;113.488;2023-04-03T06:33:01;-1.86;28.73
60242;SHT30;46103;52.076;113.488;2023-04-03T06:36:05;-1.91;29.43
60242;SHT30;46103;52.076;113.488;2023-04-03T06:39:17;-1.69;29.66
60242;SHT30;46103;52.076;113.488;2023-04-03T06:42:21;-1.43;29.18
60242;SHT30;46103;52.076;113.488;2023-04-03T06:45:46;-1.59;28.71
60242;SHT30;46103;52.076;113.488;2023-04-03T06:48:50;-1.48;28.80
60242;SHT30;46103;52.076;113.488;2023-04-03T06:51:55;-1.58;29.05
60242;SHT30;46103;52.076;113.488;2023-04-03T06:55:02;-1.58;28.74
60242;SHT30;46103;52.076;113.488;2023-04-03T06:58:07;-1.48;28.00
60242;SHT30;46103;52.076;113.488;2023-04-03T07:01:11;-1.28;28.95
60242;SHT30;46103;52.076;113.488;2023-04-03T07:04:18;-0.97;29.00
60242;SHT30;46103;52.076;113.488;2023-04-03T07:07:23;-0.88;27.67
60242;SHT30;46103;52.076;113.488;2023-04-03T07:10:27;-0.86;27.52
60242;SHT30;46103;52.076;113.488;2023-04-03T07:13:30;-0.93;27.75
60242;SHT30;46103;52.076;113.488;2023-04-03T07:16:34;-0.98;28.66
60242;SHT30;46103;52.076;113.488;2023-04-03T07:19:38;-0.93;28.17
60242;SHT30;46103;52.076;113.488;2023-04-03T07:22:42;-0.66;28.30
60242;SHT30;46103;52.076;113.488;2023-04-03T07:25:46;-0.32;27.23
60242;SHT30;46103;52.076;113.488;2023-04-03T07:28:50;0.11;25.54
60242;SHT30;46103;52.076;113.488;2023-04-03T07:31:54;0.67;26.75
60242;SHT30;46103;52.076;113.488;2023-04-03T07:34:59;0.51;25.14
60242;SHT30;46103;52.076;113.488;2023-04-03T07:38:04;0.24;25.37
60242;SHT30;46103;52.076;113.488;2023-04-03T07:41:14;0.27;25.27
60242;SHT30;46103;52.076;113.488;2023-04-03T07:44:18;0.53;24.72
60242;SHT30;46103;52.076;113.488;2023-04-03T07:47:21;0.38;23.37
60242;SHT30;46103;52.076;113.488;2023-04-03T07:50:25;0.16;23.62
60242;SHT30;46103;52.076;113.488;2023-04-03T07:53:29;-0.01;24.11
60242;SHT30;46103;52.076;113.488;2023-04-03T07:56:33;0.19;24.18
60242;SHT30;46103;52.076;113.488;2023-04-03T07:59:36;0.34;25.37
60242;SHT30;46103;52.076;113.488;2023-04-03T08:02:40;0.76;23.74
60242;SHT30;46103;52.076;113.488;2023-04-03T08:05:46;1.00;24.25
60242;SHT30;46103;52.076;113.488;2023-04-03T08:08:50;1.57;23.57
60242;SHT30;46103;52.076;113.488;2023-04-03T08:11:55;2.06;23.73
60242;SHT30;46103;52.076;113.488;2023-04-03T08:15:00;2.22;22.62
60242;SHT30;46103;52.076;113.488;2023-04-03T08:18:04;1.60;22.00
60242;SHT30;46103;52.076;113.488;2023-04-03T08:21:10;1.43;22.83
60242;SHT30;46103;52.076;113.488;2023-04-03T08:24:14;2.23;22.06
60242;SHT30;46103;52.076;113.488;2023-04-03T08:27:18;2.19;22.40
60242;SHT30;46103;52.076;113.488;2023-04-03T08:30:21;2.08;21.34
60242;SHT30;46103;52.076;113.488;2023-04-03T08:33:25;2.10;21.47
60242;SHT30;46103;52.076;113.488;2023-04-03T08:36:29;1.75;21.22
60242;SHT30;46103;52.076;113.488;2023-04-03T08:39:33;1.17;21.04
60242;SHT30;46103;52.076;113.488;2023-04-03T08:45:50;0.84;21.95
60242;SHT30;46103;52.076;113.488;2023-04-03T08:48:57;0.68;23.19
60242;SHT30;46103;52.076;113.488;2023-04-03T08:52:11;0.05;22.51
60242;SHT30;46103;52.076;113.488;2023-04-03T08:58:22;-0.19;22.95
60242;SHT30;46103;52.076;113.488;2023-04-03T09:02:04;-0.05;23.84
60242;SHT30;46103;52.076;113.488;2023-04-03T09:04:58;-0.14;22.53
60242;SHT30;46103;52.076;113.488;2023-04-03T09:15:26;-0.66;23.83
60242;SHT30;46103;52.076;113.488;2023-04-03T09:18:47;-0.60;23.63
60242;SHT30;46103;52.076;113.488;2023-04-03T09:21:59;-0.50;23.29
60242;SHT30;46103;52.076;113.488;2023-04-03T09:25:27;-1.09;23.35
60242;SHT30;46103;52.076;113.488;2023-04-03T09:28:38;-1.56;23.14
60242;SHT30;46103;52.076;113.488;2023-04-03T09:32:08;-1.71;23.76
60242;SHT30;46103;52.076;113.488;2023-04-03T09:35:24;-1.73;23.53
60242;SHT30;46103;52.076;113.488;2023-04-03T09:39:03;-1.79;22.89
60242;SHT30;46103;52.076;113.488;2023-04-03T09:42:20;-1.45;22.97
60242;SHT30;46103;52.076;113.488;2023-04-03T09:45:33;-1.21;23.24
60242;SHT30;46103;52.076;113.488;2023-04-03T09:48:39;-1.16;23.73
60242;SHT30;46103;52.076;113.488;2023-04-03T09:51:50;-1.46;23.37
60242;SHT30;46103;52.076;113.488;2023-04-03T09:55:07;-1.81;23.71
60242;SHT30;46103;52.076;113.488;2023-04-03T09:58:27;-1.98;23.69
60242;SHT30;46103;52.076;113.488;2023-04-03T10:02:21;-2.15;24.07
60242;SHT30;46103;52.076;113.488;2023-04-03T10:05:31;-2.39;23.98
60242;SHT30;46103;52.076;113.488;2023-04-03T10:08:36;-2.48;23.25
60242;SHT30;46103;52.076;113.488;2023-04-03T10:11:58;-2.56;24.20
60242;SHT30;46103;52.076;113.488;2023-04-03T10:15:14;-2.59;24.07
60242;SHT30;46103;52.076;113.488;2023-04-03T10:21:58;-2.72;24.32
60242;SHT30;46103;52.076;113.488;2023-04-03T10:25:25;-2.65;24.67
60242;SHT30;46103;52.076;113.488;2023-04-03T10:29:08;-2.70;24.56
60242;SHT30;46103;52.076;113.488;2023-04-03T10:42:53;-2.60;24.28
60242;SHT30;46103;52.076;113.488;2023-04-03T10:53:24;-2.73;24.11
60242;SHT30;46103;52.076;113.488;2023-04-03T10:59:49;-3.27;24.98
60242;SHT30;46103;52.076;113.488;2023-04-03T11:02:58;-3.38;25.52
60242;SHT30;46103;52.076;113.488;2023-04-03T11:06:07;-3.48;25.75
60242;SHT30;46103;52.076;113.488;2023-04-03T11:09:19;-3.53;25.59
60242;SHT30;46103;52.076;113.488;2023-04-03T11:12:49;-3.63;25.96
60242;SHT30;46103;52.076;113.488;2023-04-03T11:15:57;-3.69;25.48
60242;SHT30;46103;52.076;113.488;2023-04-03T11:19:21;-3.77;25.18
60242;SHT30;46103;52.076;113.488;2023-04-03T11:22:42;-3.84;25.61
60242;SHT30;46103;52.076;113.488;2023-04-03T11:25:50;-3.86;26.13
60242;SHT30;46103;52.076;113.488;2023-04-03T11:29:02;-3.90;25.37
60242;SHT30;46103;52.076;113.488;2023-04-03T11:35:23;-3.97;25.13
60242;SHT30;46103;52.076;113.488;2023-04-03T11:38:33;-3.97;25.86
60242;SHT30;46103;52.076;113.488;2023-04-03T11:41:39;-3.95;25.78
60242;SHT30;46103;52.076;113.488;2023-04-03T11:44:43;-3.98;26.31
60242;SHT30;46103;52.076;113.488;2023-04-03T11:47:49;-3.98;25.98
60242;SHT30;46103;52.076;113.488;2023-04-03T11:51:00;-4.00;26.46
60242;SHT30;46103;52.076;113.488;2023-04-03T11:54:44;-4.02;26.24
60242;SHT30;46103;52.076;113.488;2023-04-03T12:04:09;-4.18;25.91
60242;SHT30;46103;52.076;113.488;2023-04-03T12:07:18;-4.21;26.00
60242;SHT30;46103;52.076;113.488;2023-04-03T12:10:22;-4.26;25.11
60242;SHT30;46103;52.076;113.488;2023-04-03T12:16:57;-4.42;26.41
60242;SHT30;46103;52.076;113.488;2023-04-03T12:20:01;-4.49;26.96
60242;SHT30;46103;52.076;113.488;2023-04-03T12:23:35;-4.57;26.78
60242;SHT30;46103;52.076;113.488;2023-04-03T12:33:17;-4.67;27.61
60242;SHT30;46103;52.076;113.488;2023-04-03T12:36:33;-4.72;27.70
60242;SHT30;46103;52.076;113.488;2023-04-03T12:39:58;-4.79;27.37
60242;SHT30;46103;52.076;113.488;2023-04-03T12:46:24;-4.90;27.57
60242;SHT30;46103;52.076;113.488;2023-04-03T12:49:33;-4.93;28.02
60242;SHT30;46103;52.076;113.488;2023-04-03T12:52:41;-4.91;28.19
60242;SHT30;46103;52.076;113.488;2023-04-03T12:55:45;-4.94;28.31
60242;SHT30;46103;52.076;113.488;2023-04-03T12:58:52;-4.97;28.85
60242;SHT30;46103;52.076;113.488;2023-04-03T13:02:02;-5.03;29.17
60242;SHT30;46103;52.076;113.488;2023-04-03T13:05:09;-5.05;29.29
60242;SHT30;46103;52.076;113.488;2023-04-03T13:08:18;-5.08;29.30
60242;SHT30;46103;52.076;113.488;2023-04-03T13:11:36;-5.11;30.22
60242;SHT30;46103;52.076;113.488;2023-04-03T13:14:58;-5.14;30.02
60242;SHT30;46103;52.076;113.488;2023-04-03T13:18:04;-5.15;30.21
60242;SHT30;46103;52.076;113.488;2023-04-03T13:21:18;-5.18;30.34
60242;SHT30;46103;52.076;113.488;2023-04-03T13:24:24;-5.25;30.25
60242;SHT30;46103;52.076;113.488;2023-04-03T13:27:30;-5.26;30.90
60242;SHT30;46103;52.076;113.488;2023-04-03T13:30:37;-5.28;30.55
60242;SHT30;46103;52.076;113.488;2023-04-03T13:34:03;-5.36;30.30
60242;SHT30;46103;52.076;113.488;2023-04-03T13:37:52;-5.40;31.07
60242;SHT30;46103;52.076;113.488;2023-04-03T13:40:59;-5.53;30.52
60242;SHT30;46103;52.076;113.488;2023-04-03T13:47:38;-5.64;31.37
60242;SHT30;46103;52.076;113.488;2023-04-03T13:51:16;-5.70;31.57
60242;SHT30;46103;52.076;113.488;2023-04-03T13:54:23;-5.74;31.37
60242;SHT30;46103;52.076;113.488;2023-04-03T13:57:27;-5.77;31.66
60242;SHT30;46103;52.076;113.488;2023-04-03T14:00:52;-5.79;31.99
60242;SHT30;46103;52.076;113.488;2023-04-03T14:03:58;-5.80;31.71
60242;SHT30;46103;52.076;113.488;2023-04-03T14:07:03;-5.84;31.70
60242;SHT30;46103;52.076;113.488;2023-04-03T14:10:07;-5.86;32.00
60242;SHT30;46103;52.076;113.488;2023-04-03T14:13:17;-5.90;31.84
60242;SHT30;46103;52.076;113.488;2023-04-03T14:16:23;-5.93;32.34
60242;SHT30;46103;52.076;113.488;2023-04-03T14:19:34;-5.98;32.45
60242;SHT30;46103;52.076;113.488;2023-04-03T14:22:38;-5.97;32.33
60242;SHT30;46103;52.076;113.488;2023-04-03T14:25:42;-5.98;32.50
60242;SHT30;46103;52.076;113.488;2023-04-03T14:28:52;-6.00;32.85
60242;SHT30;46103;52.076;113.488;2023-04-03T14:31:56;-5.98;33.09
60242;SHT30;46103;52.076;113.488;2023-04-03T14:35:17;-6.04;33.09
60242;SHT30;46103;52.076;113.488;2023-04-03T14:38:25;-6.02;32.75
60242;SHT30;46103;52.076;113.488;2023-04-03T14:41:29;-6.05;32.48
60242;SHT30;46103;52.076;113.488;2023-04-03T14:44:32;-6.08;32.62
60242;SHT30;46103;52.076;113.488;2023-04-03T14:47:41;-6.11;33.08
60242;SHT30;46103;52.076;113.488;2023-04-03T14:50:46;-6.14;33.58
60242;SHT30;46103;52.076;113.488;2023-04-03T14:54:17;-6.21;33.79
60242;SHT30;46103;52.076;113.488;2023-04-03T14:57:25;-6.29;33.45
60242;SHT30;46103;52.076;113.488;2023-04-03T15:00:30;-6.32;33.73
60242;SHT30;46103;52.076;113.488;2023-04-03T15:03:33;-6.35;33.84
60242;SHT30;46103;52.076;113.488;2023-04-03T15:06:37;-6.38;34.14
60242;SHT30;46103;52.076;113.488;2023-04-03T15:09:41;-6.43;34.17
60242;SHT30;46103;52.076;113.488;2023-04-03T15:12:46;-6.49;34.24
60242;SHT30;46103;52.076;113.488;2023-04-03T15:15:50;-6.49;34.42
60242;SHT30;46103;52.076;113.488;2023-04-03T15:18:54;-6.54;34.73
60242;SHT30;46103;52.076;113.488;2023-04-03T15:21:58;-6.57;34.78
60242;SHT30;46103;52.076;113.488;2023-04-03T15:25:02;-6.60;34.98
60242;SHT30;46103;52.076;113.488;2023-04-03T15:28:08;-6.62;34.02
60242;SHT30;46103;52.076;113.488;2023-04-03T15:31:12;-6.62;34.79
60242;SHT30;46103;52.076;113.488;2023-04-03T15:34:16;-6.69;34.68
60242;SHT30;46103;52.076;113.488;2023-04-03T15:47:07;-6.73;34.73
60242;SHT30;46103;52.076;113.488;2023-04-03T15:50:18;-6.77;34.86
60242;SHT30;46103;52.076;113.488;2023-04-03T15:53:27;-6.76;35.07
60242;SHT30;46103;52.076;113.488;2023-04-03T15:56:37;-6.73;34.46
60242;SHT30;46103;52.076;113.488;2023-04-03T15:59:48;-6.69;34.51
60242;SHT30;46103;52.076;113.488;2023-04-03T16:03:10;-6.70;34.86
60242;SHT30;46103;52.076;113.488;2023-04-03T16:06:19;-6.69;35.42
60242;SHT30;46103;52.076;113.488;2023-04-03T16:09:30;-6.72;35.53
60242;SHT30;46103;52.076;113.488;2023-04-03T16:12:38;-6.76;35.80
60242;SHT30;46103;52.076;113.488;2023-04-03T16:15:50;-6.79;36.35
60242;SHT30;46103;52.076;113.488;2023-04-03T16:18:59;-6.79;36.57
60242;SHT30;46103;52.076;113.488;2023-04-03T16:22:11;-6.80;35.95
60242;SHT30;46103;52.076;113.488;2023-04-03T16:25:19;-6.84;36.15
60242;SHT30;46103;52.076;113.488;2023-04-03T16:28:28;-6.85;36.37
60242;SHT30;46103;52.076;113.488;2023-04-03T16:31:37;-6.87;37.10
60242;SHT30;46103;52.076;113.488;2023-04-03T16:34:48;-6.93;37.09
60242;SHT30;46103;52.076;113.488;2023-04-03T16:37:57;-6.95;37.00
60242;SHT30;46103;52.076;113.488;2023-04-03T16:41:08;-6.97;37.34
60242;SHT30;46103;52.076;113.488;2023-04-03T16:44:19;-6.95;36.90
60242;SHT30;46103;52.076;113.488;2023-04-03T16:47:31;-6.94;36.65
60242;SHT30;46103;52.076;113.488;2023-04-03T16:50:39;-7.00;37.32
60242;SHT30;46103;52.076;113.488;2023-04-03T16:53:48;-7.05;37.28
60242;SHT30;46103;52.076;113.488;2023-04-03T16:56:56;-7.05;37.15
60242;SHT30;46103;52.076;113.488;2023-04-03T17:00:08;-7.07;37.19
60242;SHT30;46103;52.076;113.488;2023-04-03T17:03:18;-7.08;37.23
60242;SHT30;46103;52.076;113.488;2023-04-03T17:06:30;-7.12;37.44
60242;SHT30;46103;52.076;113.488;2023-04-03T17:09:39;-7.14;38.39
60242;SHT30;46103;52.076;113.488;2023-04-03T17:12:47;-7.18;39.05
60242;SHT30;46103;52.076;113.488;2023-04-03T17:15:56;-7.25;39.10
60242;SHT30;46103;52.076;113.488;2023-04-03T17:19:06;-7.33;39.14
60242;SHT30;46103;52.076;113.488;2023-04-03T17:22:15;-7.44;39.54
60242;SHT30;46103;52.076;113.488;2023-04-03T17:25:24;-7.52;39.28
60242;SHT30;46103;52.076;113.488;2023-04-03T17:28:33;-7.57;39.89
60242;SHT30;46103;52.076;113.488;2023-04-03T17:31:44;-7.56;39.13
60242;SHT30;46103;52.076;113.488;2023-04-03T17:34:52;-7.57;40.65
60242;SHT30;46103;52.076;113.488;2023-04-03T17:38:03;-7.69;41.34
60242;SHT30;46103;52.076;113.488;2023-04-03T17:41:23;-7.76;42.20
60242;SHT30;46103;52.076;113.488;2023-04-03T17:44:33;-7.79;42.15
60242;SHT30;46103;52.076;113.488;2023-04-03T17:47:42;-7.80;42.34
60242;SHT30;46103;52.076;113.488;2023-04-03T17:50:53;-7.83;41.84
60242;SHT30;46103;52.076;113.488;2023-04-03T17:54:02;-7.91;42.21
60242;SHT30;46103;52.076;113.488;2023-04-03T17:57:10;-7.94;42.23
60242;SHT30;46103;52.076;113.488;2023-04-03T18:00:19;-7.97;42.06
60242;SHT30;46103;52.076;113.488;2023-04-03T18:03:29;-7.99;41.97
60242;SHT30;46103;52.076;113.488;2023-04-03T18:06:39;-7.99;41.84
60242;SHT30;46103;52.076;113.488;2023-04-03T18:09:48;-7.99;42.03
60242;SHT30;46103;52.076;113.488;2023-04-03T18:12:58;-7.99;41.97
60242;SHT30;46103;52.076;113.488;2023-04-03T18:16:07;-8.02;42.04
60242;SHT30;46103;52.076;113.488;2023-04-03T18:19:16;-8.08;42.31
60242;SHT30;46103;52.076;113.488;2023-04-03T18:22:28;-8.09;42.54
60242;SHT30;46103;52.076;113.488;2023-04-03T18:25:38;-8.14;43.18
60242;SHT30;46103;52.076;113.488;2023-04-03T18:28:52;-8.18;43.40
60242;SHT30;46103;52.076;113.488;2023-04-03T18:32:03;-8.26;43.00
60242;SHT30;46103;52.076;113.488;2023-04-03T18:35:13;-8.24;43.09
60242;SHT30;46103;52.076;113.488;2023-04-03T18:38:23;-8.26;43.12
60242;SHT30;46103;52.076;113.488;2023-04-03T18:41:33;-8.26;43.42
60242;SHT30;46103;52.076;113.488;2023-04-03T18:44:47;-8.25;43.71
60242;SHT30;46103;52.076;113.488;2023-04-03T18:47:57;-8.26;43.89
60242;SHT30;46103;52.076;113.488;2023-04-03T18:51:10;-8.29;44.52
60242;SHT30;46103;52.076;113.488;2023-04-03T18:54:21;-8.28;45.25
60242;SHT30;46103;52.076;113.488;2023-04-03T18:57:31;-8.24;45.88
60242;SHT30;46103;52.076;113.488;2023-04-03T19:00:40;-8.22;45.94
60242;SHT30;46103;52.076;113.488;2023-04-03T19:03:52;-8.26;46.11
60242;SHT30;46103;52.076;113.488;2023-04-03T19:07:02;-8.26;46.51
60242;SHT30;46103;52.076;113.488;2023-04-03T19:10:13;-8.32;46.92
60242;SHT30;46103;52.076;113.488;2023-04-03T19:13:24;-8.33;47.45
60242;SHT30;46103;52.076;113.488;2023-04-03T19:16:34;-8.35;47.84
60242;SHT30;46103;52.076;113.488;2023-04-03T19:19:43;-8.35;48.18
60242;SHT30;46103;52.076;113.488;2023-04-03T19:22:53;-8.33;48.23
60242;SHT30;46103;52.076;113.488;2023-04-03T19:26:09;-8.33;47.61
60242;SHT30;46103;52.076;113.488;2023-04-03T19:29:18;-8.30;47.34
60242;SHT30;46103;52.076;113.488;2023-04-03T19:32:32;-8.39;48.13
60242;SHT30;46103;52.076;113.488;2023-04-03T19:35:40;-8.43;48.60
60242;SHT30;46103;52.076;113.488;2023-04-03T19:38:51;-8.47;49.27
60242;SHT30;46103;52.076;113.488;2023-04-03T19:42:02;-8.49;48.97
60242;SHT30;46103;52.076;113.488;2023-04-03T19:45:13;-8.54;49.24
60242;SHT30;46103;52.076;113.488;2023-04-03T19:48:24;-8.56;49.32
60242;SHT30;46103;52.076;113.488;2023-04-03T19:51:35;-8.60;49.54
60242;SHT30;46103;52.076;113.488;2023-04-03T19:54:44;-8.61;49.59
60242;SHT30;46103;52.076;113.488;2023-04-03T19:57:59;-8.63;48.82
60242;SHT30;46103;52.076;113.488;2023-04-03T20:01:09;-8.61;47.73
60242;SHT30;46103;52.076;113.488;2023-04-03T20:04:18;-8.61;47.16
60242;SHT30;46103;52.076;113.488;2023-04-03T20:07:26;-8.63;47.72
60242;SHT30;46103;52.076;113.488;2023-04-03T20:10:36;-8.67;47.42
60242;SHT30;46103;52.076;113.488;2023-04-03T20:13:50;-8.71;47.51
60242;SHT30;46103;52.076;113.488;2023-04-03T20:17:00;-8.71;47.08
60242;SHT30;46103;52.076;113.488;2023-04-03T20:20:09;-8.73;46.41
60242;SHT30;46103;52.076;113.488;2023-04-03T20:23:21;-8.76;46.58
60242;SHT30;46103;52.076;113.488;2023-04-03T20:26:31;-8.74;46.33
60242;SHT30;46103;52.076;113.488;2023-04-03T20:29:43;-8.81;47.19
60242;SHT30;46103;52.076;113.488;2023-04-03T20:32:51;-8.91;47.87
60242;SHT30;46103;52.076;113.488;2023-04-03T20:36:00;-8.98;49.03
60242;SHT30;46103;52.076;113.488;2023-04-03T20:39:10;-9.08;49.71
60242;SHT30;46103;52.076;113.488;2023-04-03T20:42:19;-9.14;49.98
60242;SHT30;46103;52.076;113.488;2023-04-03T20:45:29;-9.14;49.60